UAIIZWWW

Guest
Details From UAII - Shymkent
To ZWWW - Diwopu
Flight Number -
Tags Generated
Created
Modified
Stats Distance 792 nm / 1,468 km
Max Altitude 0 ft / 0 m
Waypoints 3
Social Downloads 0
Likes 0
Share VATSIM

Download

Looking for another format? Having issues loading an existing format? Contact us
Advertisement - Login to hide

Notes

Generated

Route

UAII KD ZWWW

ID Type Via Altitude Latitude Longitude Leg Dist Tot Dist Heading (true) Name
O UAII APT - 0 ft / 0 m 42.36776˚ 69.46280˚ - 0 nm - -
KD NDB - 0 ft / 0 m 43.30000˚ 74.95000˚ 248 nm 248 nm 75° / 79° KURDAYSKY NDB
O ZWWW APT - 0 ft / 0 m 43.90253˚ 87.45273˚ 544 nm 792 nm 82° / 91° -

Altitude Profile

Advertisement - Login to hide

Weather


0- 5 10 15 20 25 30 35+ Temperature / ° C

Clouds and Precipitation
Forecast for 2017-12-18 18:00 UTC. Updated 2 hours ago

Ground ~20,000 ft ~40,000 ft Winds

UAII

Details ICAO UAII (CIT)
Name SHYMKENT
Region Kazakhstan and Kyrgyzstan
Timezone Asia/Almaty (UTC+6.0)
Stats Elevation 1,385 ft / 422 m (AMSL)
Location 42.364236° 69.479116°
Runways 1
Magnetic Variation 5.827° E

METAR

UAII 181630Z VRB01MPS 1000 R28/2000 BR SCT050CB OVC100 01/01 Q1027 R28/0///70 TEMPO 0500 FG VV002 RMK QFE732/0977

Decode

TAF

TAF UAII 181100Z 1812/1912 VRB02MPS 2000 BR BKN020 OVC100 TX07/1908Z TNM03/1901Z TEMPO 1812/1817 30005MPS 0300 -DZ FZFG BKN003 OVC015 TEMPO 1817/1902 12006MPS 0200 FZFG VV002

Decode

Departure Runways

ID Width Length Bearing (true) Bearing (mag) Surface Threshold Offset Overrun Length
10 144 ft / 44 m 9,167 ft / 2,794 m 106.29° 100.46° Concrete 0 ft / 0 m 0 ft / 0 m
28 144 ft / 44 m 9,167 ft / 2,794 m 286.31° 280.48° Concrete 0 ft / 0 m 0 ft / 0 m

ZWWW

Details ICAO ZWWW (URC)
Name DIWOPU
Region China
Timezone Asia/Urumqi (UTC+6.0)
Stats Elevation 2,125 ft / 648 m (AMSL)
Location 43.907106° 87.474243°
Runways 1
Magnetic Variation 2.936° E

METAR

ZWWW 181630Z VRB01MPS 2500 BR BKN012 M11/M13 Q1040 NOSIG

Decode

TAF

Not found

Destination Runways

ID Width Length Bearing (true) Bearing (mag) Surface Threshold Offset Overrun Length
07 148 ft / 45 m 11,796 ft / 3,596 m 73.55° 70.61° Concrete 0 ft / 0 m 200 ft / 61 m
25 148 ft / 45 m 11,796 ft / 3,596 m 253.58° 250.64° Concrete 0 ft / 0 m 195 ft / 59 m

Approach Navaids

Runway Type Ident Frequency Range Bearing (true) Bearing (mag) Slope Elevation
07 Localiser IOY 109.70 MHz 18 nm / 33 km 73.52° 70.59° - 2,125 ft / 648 m (AMSL)
07 Glidescope IOY 109.70 MHz 10 nm / 19 km 73.57° 70.63° 3.00° 2,125 ft / 648 m (AMSL)
25 Localiser IRM 110.30 MHz 18 nm / 33 km 253.49° 250.55° - 2,125 ft / 648 m (AMSL)
25 Glidescope IRM 110.30 MHz 10 nm / 19 km 253.57° 250.63° 3.00° 2,125 ft / 648 m (AMSL)